Time;durP1;ratioP1;P1;durP2;ratioP2;P2;SDS_P1;SDS_P2;PMS_P1;PMS_P2;Temp;Humidity;BMP_temperature;BMP_pressure;BME280_temperature;BME280_humidity;BME280_pressure;Samples;Min_cycle;Max_cycle;Signal;HPM_P1;HPM_P2
2022/10/07 00:01:03;;;;;;;10.85;6.42;;;;;;;8.77;84.09;99011.30;1729909;82;20988;-79
2022/10/07 00:03:34;;;;;;;9.20;5.78;;;;;;;8.74;84.09;99008.66;1733542;82;21056;-79
2022/10/07 00:06:12;;;;;;;8.93;5.55;;;;;;;8.74;83.83;99009.08;1755535;82;20984;-79
2022/10/07 00:08:45;;;;;;;11.28;6.47;;;;;;;8.69;83.79;99007.34;1749633;82;20996;-79
2022/10/07 00:11:23;;;;;;;9.43;6.37;;;;;;;8.64;84.71;99006.95;1727941;83;21011;-78
2022/10/07 00:14:00;;;;;;;10.95;5.87;;;;;;;8.57;84.27;99008.31;1747227;82;21095;-79
2022/10/07 00:16:36;;;;;;;9.35;6.20;;;;;;;8.51;84.11;99009.61;1728048;83;21027;-79
2022/10/07 00:19:07;;;;;;;9.75;5.97;;;;;;;8.43;83.72;99010.97;1735773;81;21032;-79
2022/10/07 00:21:36;;;;;;;8.63;5.42;;;;;;;8.39;84.11;99014.97;1737783;82;20980;-79
2022/10/07 00:24:05;;;;;;;10.98;5.78;;;;;;;8.31;83.78;99012.36;1735914;81;21454;-79
2022/10/07 00:26:35;;;;;;;10.58;5.70;;;;;;;8.26;84.23;99019.42;1695061;83;20998;-79
2022/10/07 00:29:05;;;;;;;11.35;5.80;;;;;;;8.19;83.68;99017.23;1692401;84;21724;-79
2022/10/07 00:31:35;;;;;;;12.25;6.62;;;;;;;8.14;83.89;99010.64;1728090;83;20992;-79
2022/10/07 00:34:04;;;;;;;12.73;6.10;;;;;;;8.06;84.36;99011.13;1727341;83;21059;-79
2022/10/07 00:36:35;;;;;;;10.55;6.33;;;;;;;8.02;84.46;99008.05;1726078;83;20986;-79
2022/10/07 00:39:06;;;;;;;10.68;5.87;;;;;;;7.98;84.22;99002.34;1726280;83;21051;-79
2022/10/07 00:41:38;;;;;;;13.18;5.85;;;;;;;7.94;84.72;99006.75;1725902;83;21413;-79
2022/10/07 00:44:36;;;;;;;10.45;6.60;;;;;;;7.91;84.37;99005.00;1725624;83;21015;-79
2022/10/07 00:47:25;;;;;;;13.15;6.92;;;;;;;7.85;86.23;99006.31;1717108;82;21039;-79
2022/10/07 00:50:03;;;;;;;9.55;5.60;;;;;;;7.78;85.50;99009.40;1728038;82;20987;-79
2022/10/07 00:52:34;;;;;;;9.50;6.28;;;;;;;7.72;84.62;99004.14;1726137;83;20979;-79
2022/10/07 00:55:05;;;;;;;9.85;5.53;;;;;;;7.66;84.82;99002.41;1725915;83;20981;-79
2022/10/07 00:57:33;;;;;;;9.70;6.03;;;;;;;7.63;84.79;99001.09;1736010;82;20983;-79
2022/10/07 01:00:05;;;;;;;9.18;5.67;;;;;;;7.60;84.88;99001.08;1728491;82;20976;-79
2022/10/07 01:02:33;;;;;;;9.40;5.83;;;;;;;7.57;84.93;99001.53;1735039;82;21007;-79
2022/10/07 01:05:04;;;;;;;9.20;5.53;;;;;;;7.52;85.35;99002.87;1729255;82;20999;-79
2022/10/07 01:07:32;;;;;;;8.45;5.37;;;;;;;7.50;85.55;99007.25;1723899;83;20991;-79
2022/10/07 01:10:00;;;;;;;9.38;5.70;;;;;;;7.50;85.74;99009.89;1724653;83;21034;-79
2022/10/07 01:12:51;;;;;;;8.30;5.87;;;;;;;7.46;85.42;99003.73;1725869;83;20956;-80
2022/10/07 01:15:35;;;;;;;11.20;5.92;;;;;;;7.47;85.54;99002.85;1728433;82;21007;-80
2022/10/07 01:18:16;;;;;;;11.25;5.85;;;;;;;7.46;85.41;98996.25;1742953;82;21449;-80
2022/10/07 01:21:07;;;;;;;9.55;5.60;;;;;;;7.39;85.05;98987.03;1738615;82;21036;-80
2022/10/07 01:24:03;;;;;;;16.07;5.75;;;;;;;7.36;85.37;98992.77;1725949;83;20972;-79
2022/10/07 01:26:54;;;;;;;10.50;5.62;;;;;;;7.36;86.52;98994.08;1726299;83;21472;-79
2022/10/07 01:29:26;;;;;;;10.28;5.70;;;;;;;7.34;85.57;98989.22;1725531;83;21515;-79
2022/10/07 01:31:58;;;;;;;8.53;5.08;;;;;;;7.31;85.57;98991.89;1726013;83;21031;-80
2022/10/07 01:34:27;;;;;;;7.30;5.30;;;;;;;7.29;85.57;98989.67;1726427;82;21059;-80
2022/10/07 01:36:57;;;;;;;7.20;5.15;;;;;;;7.32;85.72;98987.94;1727583;83;21047;-80
2022/10/07 01:39:33;;;;;;;6.45;4.90;;;;;;;7.38;85.60;98983.97;1726920;83;21072;-80
2022/10/07 01:42:00;;;;;;;10.05;5.25;;;;;;;7.38;85.72;98984.39;1740563;82;21378;-79
2022/10/07 01:44:29;;;;;;;7.28;4.95;;;;;;;7.44;85.87;98980.45;1736081;81;20995;-79
2022/10/07 01:46:59;;;;;;;7.50;5.30;;;;;;;7.46;85.91;98985.70;1745174;82;20971;-79
2022/10/07 01:49:26;;;;;;;9.48;5.22;;;;;;;7.51;86.38;98980.88;1746716;82;21000;-79
2022/10/07 01:52:39;;;;;;;7.83;5.28;;;;;;;7.58;86.30;98986.13;1725394;83;21080;-79
2022/10/07 01:55:49;;;;;;;8.23;4.90;;;;;;;7.64;86.46;98983.05;1733082;82;21020;-79
2022/10/07 01:59:06;;;;;;;8.93;4.75;;;;;;;7.73;86.32;98991.38;1749145;82;21036;-79
2022/10/07 02:02:02;;;;;;;7.22;4.50;;;;;;;7.72;86.34;98989.63;1727891;83;21141;-78
2022/10/07 02:04:44;;;;;;;8.18;4.62;;;;;;;7.67;86.19;98972.93;1744890;82;21338;-78
2022/10/07 02:07:22;;;;;;;10.00;4.35;;;;;;;7.65;86.24;98983.94;1755477;82;21079;-78
2022/10/07 02:10:12;;;;;;;9.65;4.80;;;;;;;7.63;86.42;98979.98;1736078;81;21359;-78
2022/10/07 02:13:05;;;;;;;6.45;4.65;;;;;;;7.70;86.95;98982.17;1694602;85;20988;-78
2022/10/07 02:15:37;;;;;;;8.43;4.47;;;;;;;7.71;86.42;98979.07;1690736;85;21530;-78
2022/10/07 02:18:07;;;;;;;6.92;4.28;;;;;;;7.69;86.74;98983.06;1690718;84;21049;-78
2022/10/07 02:20:37;;;;;;;10.58;4.97;;;;;;;7.69;86.68;98979.10;1690760;84;21494;-78
2022/10/07 02:23:07;;;;;;;9.48;5.60;;;;;;;7.66;86.83;98979.09;1691052;85;20992;-78
2022/10/07 02:25:42;;;;;;;6.65;4.42;;;;;;;7.68;86.93;98981.27;1690931;84;21067;-78
2022/10/07 02:28:11;;;;;;;7.87;4.58;;;;;;;7.65;86.49;98985.26;1690515;84;21378;-78
2022/10/07 02:30:43;;;;;;;7.42;4.95;;;;;;;7.63;86.58;98981.30;1690974;85;20929;-78
2022/10/07 02:33:11;;;;;;;8.35;4.90;;;;;;;7.61;86.20;98980.86;1703925;83;21011;-78
2022/10/07 02:36:02;;;;;;;6.87;4.30;;;;;;;7.54;85.85;98982.63;1726930;82;21005;-79
2022/10/07 02:38:30;;;;;;;8.68;4.72;;;;;;;7.48;86.13;98986.14;1715974;83;21027;-78
2022/10/07 02:41:30;;;;;;;11.22;4.70;;;;;;;7.48;86.48;98985.28;1733705;83;20984;-78
2022/10/07 02:43:52;;;;;;;7.37;4.70;;;;;;;7.44;86.03;98984.84;1731270;83;20969;-78
2022/10/07 02:46:28;;;;;;;11.73;5.30;;;;;;;7.36;86.11;98988.34;1732979;82;21008;-77
2022/10/07 02:49:04;;;;;;;9.08;5.00;;;;;;;7.33;86.15;98988.80;1733590;82;21389;-77
2022/10/07 02:51:36;;;;;;;9.95;4.78;;;;;;;7.31;86.31;98991.42;1733635;82;20980;-77
2022/10/07 02:54:04;;;;;;;7.92;4.65;;;;;;;7.29;86.33;98989.67;1733322;83;21074;-79
2022/10/07 02:56:35;;;;;;;9.38;4.90;;;;;;;7.27;86.39;98987.06;1733523;83;20964;-79
2022/10/07 02:59:07;;;;;;;9.63;4.83;;;;;;;7.27;86.78;98998.92;1732051;82;20976;-79
2022/10/07 03:01:44;;;;;;;8.75;4.85;;;;;;;7.29;86.48;98997.58;1734399;82;20992;-79
2022/10/07 03:04:14;;;;;;;6.28;4.25;;;;;;;7.24;86.36;98994.53;1753927;82;20968;-79
2022/10/07 03:06:43;;;;;;;7.55;4.60;;;;;;;7.22;86.49;98986.15;1737326;82;20965;-78
2022/10/07 03:09:10;;;;;;;8.75;4.60;;;;;;;7.22;87.14;98988.36;1733366;82;20989;-78
2022/10/07 03:11:38;;;;;;;8.75;4.78;;;;;;;7.25;87.11;98992.75;1733548;83;20992;-78
2022/10/07 03:14:05;;;;;;;9.53;5.25;;;;;;;7.26;87.05;98987.48;1733628;82;20999;-78
2022/10/07 03:16:32;;;;;;;8.55;5.37;;;;;;;7.28;87.13;98988.81;1746945;82;21493;-78
2022/10/07 03:18:59;;;;;;;10.45;5.30;;;;;;;7.29;87.11;98993.20;1734097;82;20984;-78
2022/10/07 03:21:28;;;;;;;8.83;4.92;;;;;;;7.28;87.15;98994.51;1731389;83;21027;-80
2022/10/07 03:23:56;;;;;;;9.90;5.28;;;;;;;7.26;86.98;98991.86;1733541;83;21456;-80
2022/10/07 03:26:24;;;;;;;7.65;4.78;;;;;;;7.28;86.80;98986.60;1733352;83;21039;-78
2022/10/07 03:28:51;;;;;;;6.47;4.60;;;;;;;7.23;86.48;98982.20;1733447;83;20976;-78
2022/10/07 03:31:18;;;;;;;11.97;5.15;;;;;;;7.23;87.05;98978.70;1752906;82;20945;-77
2022/10/07 03:33:47;;;;;;;7.25;4.58;;;;;;;7.22;86.80;98976.92;1752918;82;20964;-77
2022/10/07 03:36:15;;;;;;;7.10;4.97;;;;;;;7.20;86.93;98974.73;1729813;82;20979;-77
2022/10/07 03:38:44;;;;;;;9.78;5.12;;;;;;;7.20;87.01;98970.78;1735031;82;21067;-77
2022/10/07 03:41:11;;;;;;;7.03;4.70;;;;;;;7.19;86.77;98976.94;1729267;82;21128;-79
2022/10/07 03:43:38;;;;;;;9.08;4.85;;;;;;;7.15;86.71;98972.55;1725790;83;21377;-79
2022/10/07 03:46:05;;;;;;;8.03;5.00;;;;;;;7.15;86.99;98973.86;1725925;83;20975;-79
2022/10/07 03:48:33;;;;;;;8.25;5.10;;;;;;;7.15;87.35;98977.81;1726250;83;20991;-79
2022/10/07 03:51:01;;;;;;;9.20;5.20;;;;;;;7.12;86.78;98971.67;1732291;82;20975;-79
2022/10/07 03:53:29;;;;;;;9.95;5.58;;;;;;;7.09;86.79;98969.03;1731053;82;20955;-80
2022/10/07 03:55:59;;;;;;;9.35;5.80;;;;;;;7.07;86.83;98969.91;1733120;82;21509;-80
2022/10/07 03:58:29;;;;;;;8.93;5.55;;;;;;;7.04;87.24;98973.42;1726003;83;21378;-80
2022/10/07 04:01:13;;;;;;;10.50;6.20;;;;;;;7.01;87.19;98974.72;1734852;82;20995;-77
2022/10/07 04:03:42;;;;;;;10.23;5.03;;;;;;;7.02;87.64;98972.52;1719558;82;21028;-80
2022/10/07 04:06:11;;;;;;;10.38;5.45;;;;;;;7.04;87.26;98976.48;1714957;82;21003;-79
2022/10/07 04:08:40;;;;;;;10.48;4.92;;;;;;;7.07;87.17;98969.91;1744626;82;20984;-80
2022/10/07 04:11:07;;;;;;;9.53;5.12;;;;;;;7.08;87.44;98968.59;1746761;82;20969;-79
2022/10/07 04:13:35;;;;;;;6.83;4.87;;;;;;;7.08;87.82;98965.06;1745049;82;20996;-77
2022/10/07 04:16:08;;;;;;;6.72;4.58;;;;;;;7.11;87.83;98965.08;1740874;82;21016;-80
2022/10/07 04:18:35;;;;;;;6.85;4.97;;;;;;;7.16;87.83;98974.30;1713353;82;21488;-79
2022/10/07 04:21:02;;;;;;;8.95;4.92;;;;;;;7.19;87.72;98965.94;1740930;82;21460;-79
2022/10/07 04:23:30;;;;;;;7.78;4.97;;;;;;;7.24;87.58;98965.53;1709411;82;21004;-80
2022/10/07 04:25:56;;;;;;;7.17;4.50;;;;;;;7.30;87.88;98967.72;1720105;83;21104;-79
2022/10/07 04:28:28;;;;;;;9.15;4.65;;;;;;;7.35;87.61;98966.81;1722820;83;20996;-80
2022/10/07 04:31:01;;;;;;;7.95;5.22;;;;;;;7.33;87.46;98961.11;1723087;83;20999;-78
2022/10/07 04:33:29;;;;;;;10.08;5.53;;;;;;;7.33;87.53;98965.06;1724790;82;21476;-78
2022/10/07 04:36:05;;;;;;;8.63;5.40;;;;;;;7.31;87.68;98965.52;1724862;82;21046;-79
2022/10/07 04:38:32;;;;;;;8.40;4.65;;;;;;;7.35;88.07;98964.64;1725161;82;21164;-79
2022/10/07 04:41:05;;;;;;;6.65;4.75;;;;;;;7.40;87.86;98961.09;1725351;82;21007;-79
2022/10/07 04:43:34;;;;;;;8.38;4.97;;;;;;;7.38;87.57;98958.02;1732386;82;21026;-79
2022/10/07 04:46:13;;;;;;;6.60;4.83;;;;;;;7.36;87.51;98961.11;1726800;82;20984;-79
2022/10/07 04:48:45;;;;;;;15.60;6.10;;;;;;;7.32;87.57;98955.40;1723286;82;20983;-80
2022/10/07 04:51:15;;;;;;;13.38;6.08;;;;;;;7.32;87.65;98955.40;1710974;82;21500;-80
2022/10/07 04:53:43;;;;;;;9.10;6.53;;;;;;;7.34;88.01;98961.11;1725634;82;20999;-80
2022/10/07 04:56:12;;;;;;;9.75;5.90;;;;;;;7.36;87.75;98961.11;1725234;82;21003;-80
2022/10/07 04:58:39;;;;;;;8.13;5.10;;;;;;;7.34;87.93;98954.95;1725303;82;21015;-80
2022/10/07 05:01:08;;;;;;;14.05;6.00;;;;;;;7.33;87.78;98958.04;1725300;82;21316;-80
2022/10/07 05:03:40;;;;;;;9.85;6.30;;;;;;;7.37;88.35;98957.16;1723388;82;21020;-79
2022/10/07 05:06:08;;;;;;;7.40;5.08;;;;;;;7.38;88.04;98961.55;1725600;82;20955;-80
2022/10/07 05:08:36;;;;;;;13.32;5.62;;;;;;;7.45;88.23;98956.26;1725558;82;20976;-80
2022/10/07 05:11:03;;;;;;;10.13;5.47;;;;;;;7.50;88.00;98955.81;1725754;82;21039;-80
2022/10/07 05:13:33;;;;;;;8.95;5.47;;;;;;;7.52;87.65;98963.30;1725077;82;21377;-80
2022/10/07 05:16:02;;;;;;;10.18;5.58;;;;;;;7.53;88.13;98955.36;1725721;82;21011;-80
2022/10/07 05:18:30;;;;;;;10.38;6.00;;;;;;;7.57;88.04;98948.77;1725899;82;20956;-80
2022/10/07 05:21:05;;;;;;;11.63;6.25;;;;;;;7.57;87.96;98960.22;1725876;82;21019;-80
2022/10/07 05:23:36;;;;;;;15.15;6.40;;;;;;;7.58;87.54;98965.03;1725220;82;21469;-80
2022/10/07 05:26:12;;;;;;;14.07;6.45;;;;;;;7.60;87.79;98965.46;1725876;82;20999;-80
2022/10/07 05:28:40;;;;;;;8.65;5.97;;;;;;;7.66;88.21;98963.27;1725936;82;20947;-80
2022/10/07 05:31:12;;;;;;;11.90;8.08;;;;;;;7.69;88.29;98960.62;1728780;82;21039;-79
2022/10/07 05:33:40;;;;;;;11.90;7.80;;;;;;;7.75;88.02;98960.61;1734992;82;21035;-81
2022/10/07 05:36:10;;;;;;;18.42;10.65;;;;;;;7.81;88.06;98966.75;1734751;80;21060;-81
2022/10/07 05:38:36;;;;;;;19.90;12.47;;;;;;;7.87;87.96;98969.36;1726194;82;21440;-81
2022/10/07 05:41:08;;;;;;;18.02;11.18;;;;;;;7.95;87.92;98973.30;1721705;82;21024;-80
2022/10/07 05:43:40;;;;;;;20.68;10.38;;;;;;;7.99;88.01;98969.77;1725267;82;21368;-79
2022/10/07 05:46:13;;;;;;;18.82;10.15;;;;;;;8.02;88.18;98968.45;1733934;82;21510;-79
2022/10/07 05:48:49;;;;;;;17.57;11.50;;;;;;;8.06;88.14;98968.88;1733126;82;21023;-79
2022/10/07 05:51:18;;;;;;;23.92;11.35;;;;;;;8.13;87.98;98973.23;1728196;81;21330;-79
2022/10/07 05:53:46;;;;;;;20.95;10.35;;;;;;;8.20;87.83;98972.78;1731356;82;20944;-79
2022/10/07 05:56:20;;;;;;;18.77;11.28;;;;;;;8.26;87.96;98979.34;1724362;82;21028;-79
2022/10/07 05:58:52;;;;;;;16.60;11.75;;;;;;;8.32;87.95;98975.34;1732439;82;20998;-80
2022/10/07 06:01:23;;;;;;;20.08;13.38;;;;;;;8.39;87.76;98973.56;1742888;82;21062;-81
2022/10/07 06:03:56;;;;;;;24.75;14.40;;;;;;;8.47;87.90;98971.34;1726767;82;21025;-80
2022/10/07 06:06:28;;;;;;;28.25;15.35;;;;;;;8.52;87.94;98978.36;1727212;82;20977;-79
2022/10/07 06:13:06;;;;;;;24.12;14.50;;;;;;;8.60;87.86;98974.39;1726920;82;20939;-80
2022/10/07 06:14:15;;;;;;;32.25;17.20;;;;;;;8.75;87.38;98976.05;1725350;82;20979;-80
2022/10/07 06:16:41;;;;;;;29.70;15.70;;;;;;;8.80;87.17;98970.75;1726499;82;20959;-80
2022/10/07 06:19:21;;;;;;;29.30;16.48;;;;;;;8.87;87.28;98979.48;1726237;82;21014;-80
2022/10/07 06:21:37;;;;;;;27.32;16.30;;;;;;;8.94;87.21;98971.96;1726467;82;21022;-80
2022/10/07 06:24:05;;;;;;;25.85;15.88;;;;;;;9.01;87.21;98978.09;1746442;82;20975;-80
2022/10/07 06:26:35;;;;;;;38.45;18.12;;;;;;;9.06;87.15;98975.82;1726513;83;20955;-80
2022/10/07 06:29:04;;;;;;;31.48;17.57;;;;;;;9.13;86.98;98974.47;1726159;82;21455;-80
2022/10/07 06:31:31;;;;;;;34.63;17.17;;;;;;;9.18;86.95;98972.20;1726343;82;21397;-80
2022/10/07 06:33:59;;;;;;;26.97;17.77;;;;;;;9.24;86.54;98971.29;1742272;82;21324;-80
2022/10/07 06:36:29;;;;;;;32.38;17.15;;;;;;;9.29;86.47;98972.55;1714872;83;20992;-80
2022/10/07 06:38:56;;;;;;;27.02;16.40;;;;;;;9.32;86.26;98970.78;1704285;83;21452;-80
2022/10/07 06:41:24;;;;;;;22.62;15.55;;;;;;;9.37;86.19;98976.02;1684387;83;21019;-81
2022/10/07 06:43:56;;;;;;;21.60;14.38;;;;;;;9.40;86.05;98977.33;1704256;84;21036;-78
2022/10/07 06:46:24;;;;;;;23.65;12.80;;;;;;;9.43;86.01;98969.34;1685543;84;21445;-79
2022/10/07 06:48:51;;;;;;;25.40;13.85;;;;;;;9.49;85.84;98979.00;1705028;83;20987;-79
2022/10/07 06:51:20;;;;;;;22.42;12.45;;;;;;;9.52;85.74;98976.34;1704284;84;20968;-78
2022/10/07 06:53:55;;;;;;;24.52;13.55;;;;;;;9.58;85.58;98973.63;1704961;83;21441;-77
2022/10/07 06:56:23;;;;;;;24.92;12.43;;;;;;;9.66;85.49;98980.16;1685251;84;21016;-78
2022/10/07 06:58:50;;;;;;;18.75;12.63;;;;;;;9.72;85.37;98984.06;1703000;83;21070;-79
2022/10/07 07:01:20;;;;;;;20.88;12.37;;;;;;;9.79;85.31;98982.23;1702070;83;21759;-78
2022/10/07 07:03:48;;;;;;;25.17;14.23;;;;;;;9.85;85.23;98987.45;1704812;83;21044;-80
2022/10/07 07:06:16;;;;;;;22.48;12.25;;;;;;;9.92;85.20;98987.42;1704616;84;21048;-80
2022/10/07 07:08:44;;;;;;;23.40;12.25;;;;;;;10.01;85.07;98990.83;1703976;83;21055;-79
2022/10/07 07:14:03;;;;;;;27.07;12.37;;;;;;;10.15;84.83;98991.12;1703241;83;21028;-79
2022/10/07 07:16:31;;;;;;;22.25;11.65;;;;;;;10.27;85.08;98990.98;1704138;84;21019;-80
2022/10/07 07:19:01;;;;;;;24.23;11.38;;;;;;;10.38;85.01;98988.66;1705096;83;21003;-79
2022/10/07 07:21:29;;;;;;;25.85;11.40;;;;;;;10.47;84.81;98977.08;1702730;83;21001;-79
2022/10/07 07:23:57;;;;;;;24.10;10.75;;;;;;;10.56;84.63;98979.61;1702771;83;21381;-78
2022/10/07 07:26:28;;;;;;;21.45;10.32;;;;;;;10.64;84.62;98979.06;1705184;82;21378;-79
2022/10/07 07:29:00;;;;;;;13.58;9.68;;;;;;;10.73;84.46;98965.22;1705507;82;20998;-81
2022/10/07 07:31:31;;;;;;;23.80;10.78;;;;;;;10.85;84.17;98974.78;1704110;83;21055;-81
2022/10/07 07:34:01;;;;;;;16.50;10.00;;;;;;;10.96;83.70;98975.48;1704935;83;21043;-82
2022/10/07 07:36:33;;;;;;;26.73;11.45;;;;;;;11.06;83.52;98974.91;1727189;82;20994;-81
2022/10/07 07:39:05;;;;;;;30.85;11.90;;;;;;;11.16;83.16;98968.98;1725616;82;21051;-80
2022/10/07 07:41:37;;;;;;;18.67;11.93;;;;;;;11.23;83.16;98968.00;1725419;82;20985;-80
2022/10/07 07:44:09;;;;;;;26.00;13.45;;;;;;;11.32;82.55;98964.30;1740130;82;20972;-81
2022/10/07 07:46:47;;;;;;;22.93;12.58;;;;;;;11.34;81.96;98970.48;1696016;84;21027;-80
2022/10/07 07:49:16;;;;;;;22.95;12.82;;;;;;;11.38;82.08;98956.70;1712294;82;21067;-79
2022/10/07 07:51:44;;;;;;;24.57;12.05;;;;;;;11.42;82.05;98953.95;1729094;82;21441;-80
2022/10/07 07:54:13;;;;;;;22.82;12.53;;;;;;;11.48;81.77;98956.52;1714536;82;21003;-78
2022/10/07 07:56:42;;;;;;;22.10;11.45;;;;;;;11.51;81.70;98958.25;1697118;83;21013;-77
2022/10/07 07:59:10;;;;;;;23.22;12.93;;;;;;;11.58;81.36;98959.88;1696204;83;20953;-81
2022/10/07 08:01:37;;;;;;;22.02;12.13;;;;;;;11.60;81.36;98958.08;1727141;82;21038;-79
2022/10/07 08:04:04;;;;;;;23.98;12.50;;;;;;;11.64;81.36;98957.56;1726482;82;21044;-80
2022/10/07 08:06:33;;;;;;;18.77;11.57;;;;;;;11.68;81.39;98955.28;1741348;82;21418;-83
2022/10/07 08:09:01;;;;;;;18.65;12.40;;;;;;;11.73;81.27;98960.05;1728310;82;21000;-82
2022/10/07 08:11:31;;;;;;;18.40;12.35;;;;;;;11.74;80.91;98955.16;1692665;83;21044;-87
2022/10/07 08:13:58;;;;;;;18.32;12.23;;;;;;;11.77;81.01;98963.95;1685919;83;21000;-80
2022/10/07 08:16:28;;;;;;;20.72;11.15;;;;;;;11.82;80.96;98956.78;1665973;85;21423;-78
2022/10/07 08:18:57;;;;;;;22.82;12.63;;;;;;;11.85;80.72;98953.63;1724555;82;22086;-78
2022/10/07 08:21:31;;;;;;;23.07;13.70;;;;;;;11.90;80.65;98961.50;1726140;82;21070;-77
2022/10/07 08:23:57;;;;;;;21.93;12.93;;;;;;;11.92;80.66;98950.38;1707429;82;21028;-79
2022/10/07 08:26:28;;;;;;;19.87;12.53;;;;;;;11.97;80.64;98956.95;1726165;82;20958;-79
2022/10/07 08:28:56;;;;;;;22.55;12.50;;;;;;;12.03;80.71;98949.32;1726834;82;21012;-78
2022/10/07 08:31:28;;;;;;;17.40;10.90;;;;;;;12.08;80.48;98939.50;1726229;82;21020;-79
2022/10/07 08:33:59;;;;;;;21.57;11.57;;;;;;;12.13;80.53;98935.82;1731626;82;21063;-79
2022/10/07 08:36:29;;;;;;;19.17;11.30;;;;;;;12.21;80.57;98936.13;1741006;82;20998;-79
2022/10/07 08:38:56;;;;;;;15.63;11.05;;;;;;;12.28;80.24;98931.09;1727257;82;21444;-80
2022/10/07 08:41:52;;;;;;;17.48;10.80;;;;;;;12.34;80.06;98927.44;1695024;83;21008;-78
2022/10/07 08:44:41;;;;;;;17.80;11.22;;;;;;;12.41;80.15;98928.59;1717941;82;21096;-79
2022/10/07 08:47:42;;;;;;;17.92;11.85;;;;;;;12.51;80.18;98927.92;1728595;82;20977;-79
2022/10/07 08:50:17;;;;;;;16.07;9.63;;;;;;;12.61;80.25;98928.60;1728625;82;20944;-80
2022/10/07 08:52:54;;;;;;;14.93;9.93;;;;;;;12.71;80.12;98922.59;1727063;82;20965;-78
2022/10/07 08:55:51;;;;;;;15.72;10.43;;;;;;;12.80;80.04;98923.72;1726592;82;21043;-79
2022/10/07 08:58:55;;;;;;;16.48;9.95;;;;;;;12.93;79.95;98921.66;1724176;82;21470;-78
2022/10/07 09:01:32;;;;;;;17.12;9.28;;;;;;;13.02;79.79;98917.89;1695570;84;21001;-79
2022/10/07 09:04:32;;;;;;;13.70;9.48;;;;;;;13.13;79.74;98921.63;1685280;83;20980;-79
2022/10/07 09:07:09;;;;;;;19.42;10.32;;;;;;;13.26;79.37;98914.64;1669195;85;21061;-77
2022/10/07 09:09:47;;;;;;;16.50;10.13;;;;;;;13.37;79.09;98909.91;1726224;82;21062;-78
2022/10/07 09:12:19;;;;;;;14.23;9.60;;;;;;;13.46;79.01;98912.33;1726156;82;21464;-77
2022/10/07 09:14:50;;;;;;;13.38;9.18;;;;;;;13.55;78.71;98913.03;1738471;82;20973;-78
2022/10/07 09:17:33;;;;;;;16.40;9.68;;;;;;;13.66;78.73;98906.09;1726117;82;20971;-79
2022/10/07 09:20:15;;;;;;;12.20;9.60;;;;;;;13.76;78.72;98902.70;1725877;83;21067;-80
2022/10/07 09:22:45;;;;;;;53.05;31.75;;;;;;;13.88;78.52;98905.48;1725148;82;21464;-80
2022/10/07 09:25:25;;;;;;;76.75;46.08;;;;;;;14.01;78.43;98903.33;1720445;82;20969;-81
2022/10/07 09:27:53;;;;;;;25.27;15.60;;;;;;;14.13;78.33;98902.98;1695149;83;20993;-80
2022/10/07 09:30:23;;;;;;;17.10;10.48;;;;;;;14.28;78.09;98898.12;1694974;83;21079;-81
2022/10/07 09:32:53;;;;;;;16.15;9.55;;;;;;;14.42;78.01;98895.02;1729609;82;20944;-80
2022/10/07 09:35:24;;;;;;;15.85;10.15;;;;;;;14.54;77.75;98886.65;1727965;82;21043;-80
2022/10/07 09:37:58;;;;;;;17.98;9.68;;;;;;;14.65;77.40;98882.28;1728227;82;21059;-80
2022/10/07 09:43:33;;;;;;;12.37;8.83;;;;;;;14.93;77.27;98877.88;1704933;82;21037;-80
2022/10/07 09:46:00;;;;;;;13.60;8.10;;;;;;;15.10;77.16;98883.98;1726237;82;21034;-80
2022/10/07 09:48:35;;;;;;;13.30;8.28;;;;;;;15.28;76.94;98877.16;1729342;82;20957;-80
2022/10/07 09:51:14;;;;;;;13.40;8.80;;;;;;;15.44;76.28;98869.45;1727350;82;21003;-80
2022/10/07 09:54:06;;;;;;;15.72;9.10;;;;;;;15.61;76.12;98866.19;1733902;82;21004;-80
2022/10/07 09:56:41;;;;;;;19.80;11.38;;;;;;;15.81;74.97;98864.58;1729335;82;21012;-79
2022/10/07 09:59:21;;;;;;;17.00;9.18;;;;;;;15.99;74.66;98861.73;1734626;82;20989;-80
2022/10/07 10:01:51;;;;;;;11.45;8.13;;;;;;;16.15;74.46;98862.48;1728179;82;21052;-80
2022/10/07 10:04:29;;;;;;;17.52;8.58;;;;;;;16.28;73.98;98856.19;1725207;82;21508;-81
2022/10/07 10:07:06;;;;;;;16.07;8.00;;;;;;;16.40;73.39;98850.34;1733800;82;21034;-79
2022/10/07 10:09:34;;;;;;;11.75;7.60;;;;;;;16.54;73.15;98853.82;1714711;82;21024;-80
2022/10/07 10:12:12;;;;;;;14.80;7.53;;;;;;;16.70;72.40;98838.47;1729766;82;21024;-78
2022/10/07 10:14:52;;;;;;;11.00;8.10;;;;;;;16.86;72.42;98831.53;1725005;82;20976;-82
2022/10/07 10:17:33;;;;;;;14.55;6.78;;;;;;;17.02;72.11;98834.89;1731223;82;20973;-80
2022/10/07 10:20:28;;;;;;;11.03;7.30;;;;;;;17.18;71.85;98828.45;1727408;82;21050;-81
2022/10/07 10:22:56;;;;;;;7.55;6.12;;;;;;;17.38;70.59;98818.66;1728512;82;20983;-80
2022/10/07 10:28:35;;;;;;;12.82;6.78;;;;;;;18.19;70.19;98811.02;1711842;82;21384;-81
2022/10/07 10:31:07;;;;;;;13.13;7.60;;;;;;;19.30;68.10;98805.58;1724853;82;20932;-81
2022/10/07 10:33:52;;;;;;;11.22;7.25;;;;;;;20.47;64.53;98801.95;1728917;82;20995;-80
2022/10/07 10:36:22;;;;;;;20.62;6.55;;;;;;;21.49;64.12;98799.98;1725000;82;21020;-82
2022/10/07 10:39:03;;;;;;;9.03;5.33;;;;;;;22.65;63.29;98795.41;1737809;81;21392;-82
2022/10/07 10:41:57;;;;;;;10.00;6.08;;;;;;;23.77;54.50;98789.63;1732146;81;21425;-83
2022/10/07 10:44:32;;;;;;;9.13;5.35;;;;;;;24.60;56.84;98775.06;1728904;82;20995;-80
2022/10/07 10:47:36;;;;;;;8.20;4.83;;;;;;;25.48;51.83;98772.03;1732256;81;21430;-80
2022/10/07 10:50:52;;;;;;;7.70;4.10;;;;;;;26.18;49.96;98765.98;1732743;81;21730;-80
2022/10/07 10:54:05;;;;;;;5.87;3.62;;;;;;;26.69;44.23;98761.42;1735893;82;20983;-80
2022/10/07 10:56:52;;;;;;;6.20;3.25;;;;;;;27.26;39.53;98750.25;1733452;81;21031;-81
2022/10/07 10:59:30;;;;;;;3.08;2.62;;;;;;;27.84;40.05;98753.42;1729953;82;20975;-81
2022/10/07 11:02:11;;;;;;;2.72;2.50;;;;;;;28.46;38.84;98747.38;1737688;81;21008;-80
2022/10/07 11:04:51;;;;;;;5.70;3.25;;;;;;;28.77;38.46;98742.80;1734811;82;21432;-79
2022/10/07 11:07:35;;;;;;;4.08;3.17;;;;;;;28.96;32.03;98737.36;1734681;81;20992;-80
2022/10/07 11:10:25;;;;;;;4.55;2.90;;;;;;;29.37;35.43;98743.95;1735857;82;21027;-80
2022/10/07 11:13:12;;;;;;;2.85;2.55;;;;;;;29.47;35.27;98739.81;1729595;82;21050;-80
2022/10/07 11:15:46;;;;;;;4.08;2.47;;;;;;;29.67;30.68;98730.73;1738458;81;21028;-80
2022/10/07 11:18:50;;;;;;;2.42;2.22;;;;;;;29.84;32.48;98730.41;1735017;81;21119;-81
2022/10/07 11:21:31;;;;;;;4.97;2.70;;;;;;;29.98;32.73;98724.97;1736590;82;21007;-79
2022/10/07 11:24:02;;;;;;;5.40;2.35;;;;;;;30.22;33.01;98723.04;1699709;82;21082;-78
2022/10/07 11:26:49;;;;;;;4.10;2.40;;;;;;;30.45;31.50;98724.46;1737578;82;20976;-79
2022/10/07 11:29:37;;;;;;;4.50;2.05;;;;;;;30.34;31.39;98719.58;1736632;81;20987;-79
2022/10/07 11:32:09;;;;;;;3.47;2.47;;;;;;;29.13;30.16;98712.20;1733340;81;20990;-80
2022/10/07 11:34:47;;;;;;;3.30;2.77;;;;;;;28.43;33.03;98712.22;1734027;81;21393;-79
2022/10/07 11:37:37;;;;;;;5.33;2.35;;;;;;;27.99;33.98;98710.33;1732474;82;20977;-79
2022/10/07 11:40:05;;;;;;;5.33;2.80;;;;;;;27.76;34.43;98706.45;1726900;82;21038;-79
2022/10/07 11:42:41;;;;;;;3.47;2.55;;;;;;;27.91;34.17;98696.89;1728295;82;20988;-79
2022/10/07 11:45:22;;;;;;;4.25;2.50;;;;;;;28.01;33.67;98704.22;1732361;82;20960;-79
2022/10/07 11:47:56;;;;;;;3.20;2.30;;;;;;;27.49;33.75;98702.47;1730215;82;21048;-80
2022/10/07 11:50:38;;;;;;;3.80;2.20;;;;;;;26.88;34.34;98697.67;1727356;82;21556;-79
2022/10/07 11:53:09;;;;;;;3.70;2.50;;;;;;;26.01;34.50;98694.03;1720527;82;21028;-78
2022/10/07 11:55:41;;;;;;;3.10;2.12;;;;;;;25.81;34.87;98688.40;1724995;82;21020;-79
2022/10/07 11:58:31;;;;;;;4.03;2.10;;;;;;;25.57;35.21;98690.77;1727072;81;21016;-80
2022/10/07 12:01:29;;;;;;;4.37;2.30;;;;;;;25.14;36.58;98689.63;1726347;82;21137;-80
2022/10/07 12:04:19;;;;;;;2.80;2.17;;;;;;;24.61;37.60;98692.30;1735548;82;21019;-80
2022/10/07 12:07:31;;;;;;;3.08;2.30;;;;;;;24.29;38.29;98690.69;1626777;87;21085;-79
2022/10/07 12:10:04;;;;;;;3.37;2.17;;;;;;;24.18;38.31;98686.08;1622832;87;20978;-80
2022/10/07 12:12:48;;;;;;;3.42;2.12;;;;;;;24.51;38.61;98689.92;1673762;83;20969;-80
2022/10/07 12:15:35;;;;;;;3.45;2.50;;;;;;;24.71;38.19;98688.88;1694993;85;21114;-79
2022/10/07 12:18:14;;;;;;;3.27;2.42;;;;;;;24.67;37.88;98691.45;1667722;84;20997;-79